createdAt,value
2023-05-13T00:01:39.238Z,16.30
2023-05-13T00:04:12.573Z,16.30
2023-05-13T00:06:46.260Z,16.30
2023-05-13T00:09:20.251Z,16.20
2023-05-13T00:11:55.454Z,16.20
2023-05-13T00:14:29.179Z,16.10
2023-05-13T00:17:07.613Z,16.10
2023-05-13T00:19:41.198Z,16.10
2023-05-13T00:22:15.078Z,16.00
2023-05-13T00:24:48.930Z,16.00
2023-05-13T00:27:24.362Z,15.90
2023-05-13T00:29:59.830Z,15.90
2023-05-13T00:32:33.880Z,15.90
2023-05-13T00:35:08.160Z,15.90
2023-05-13T00:37:42.319Z,15.80
2023-05-13T00:40:23.438Z,15.80
2023-05-13T00:42:58.909Z,15.70
2023-05-13T00:45:32.723Z,15.70
2023-05-13T00:48:08.520Z,15.70
2023-05-13T00:50:44.708Z,15.70
2023-05-13T00:53:18.981Z,15.60
2023-05-13T00:55:52.763Z,15.60
2023-05-13T00:58:28.260Z,15.60
2023-05-13T01:01:16.434Z,15.50
2023-05-13T01:04:04.990Z,15.50
2023-05-13T01:06:58.190Z,15.50
2023-05-13T01:09:42.317Z,15.50
2023-05-13T01:12:23.882Z,15.40
2023-05-13T01:15:06.705Z,15.40
2023-05-13T01:17:49.789Z,15.40
2023-05-13T01:20:25.317Z,15.40
2023-05-13T01:23:01.187Z,15.30
2023-05-13T01:25:35.158Z,15.30
2023-05-13T01:28:09.952Z,15.30
2023-05-13T01:30:44.053Z,15.20
2023-05-13T01:33:19.420Z,15.20
2023-05-13T01:35:54.463Z,15.20
2023-05-13T01:38:30.922Z,15.10
2023-05-13T01:41:04.741Z,15.10
2023-05-13T01:43:38.953Z,15.00
2023-05-13T01:46:15.422Z,15.00
2023-05-13T01:48:49.188Z,15.00
2023-05-13T01:51:23.184Z,15.00
2023-05-13T01:53:58.127Z,14.90
2023-05-13T01:56:33.078Z,14.90
2023-05-13T01:59:06.625Z,14.90
2023-05-13T02:01:40.774Z,14.80
2023-05-13T02:04:15.284Z,14.80
2023-05-13T02:06:49.522Z,14.80
2023-05-13T02:09:25.163Z,14.80
2023-05-13T02:11:59.486Z,14.80
2023-05-13T02:14:33.043Z,14.70
2023-05-13T02:17:06.741Z,14.70
2023-05-13T02:19:40.574Z,14.70
2023-05-13T02:22:14.079Z,14.60
2023-05-13T02:24:49.422Z,14.60
2023-05-13T02:27:23.800Z,14.60
2023-05-13T02:29:57.593Z,14.50
2023-05-13T02:32:31.349Z,14.50
2023-05-13T02:35:05.836Z,14.50
2023-05-13T02:37:40.037Z,14.40
2023-05-13T02:40:16.630Z,14.40
2023-05-13T02:42:50.590Z,14.40
2023-05-13T02:45:24.169Z,14.40
2023-05-13T02:47:58.294Z,14.30
2023-05-13T02:50:33.344Z,14.30
2023-05-13T02:53:07.477Z,14.30
2023-05-13T02:55:42.599Z,14.20
2023-05-13T02:58:16.904Z,14.20
2023-05-13T03:00:50.742Z,14.20
2023-05-13T03:03:24.382Z,14.20
2023-05-13T03:05:58.248Z,14.10
2023-05-13T03:08:32.133Z,14.10
2023-05-13T03:11:07.572Z,14.10
2023-05-13T03:13:41.386Z,14.10
2023-05-13T03:16:14.981Z,14.00
2023-05-13T03:18:49.015Z,14.00
2023-05-13T03:21:23.104Z,14.00
2023-05-13T03:23:57.296Z,13.90
2023-05-13T03:26:32.501Z,13.90
2023-05-13T03:29:06.432Z,13.90
2023-05-13T03:31:40.586Z,13.90
2023-05-13T03:34:14.553Z,13.80
2023-05-13T03:36:48.414Z,13.80
2023-05-13T03:39:22.365Z,13.80
2023-05-13T03:41:57.535Z,13.70
2023-05-13T03:44:31.012Z,13.70
2023-05-13T03:47:05.083Z,13.70
2023-05-13T03:49:39.999Z,13.70
2023-05-13T03:52:13.453Z,13.70
2023-05-13T03:54:47.640Z,13.60
2023-05-13T03:57:23.077Z,13.60
2023-05-13T03:59:56.792Z,13.60
2023-05-13T04:02:30.886Z,13.60
2023-05-13T04:05:06.095Z,13.50
2023-05-13T04:07:40.306Z,13.50
2023-05-13T04:10:16.915Z,13.50
2023-05-13T04:12:51.921Z,13.50
2023-05-13T04:15:28.401Z,13.50
2023-05-13T04:18:02.528Z,13.40
2023-05-13T04:20:36.278Z,13.40
2023-05-13T04:23:10.967Z,13.40
2023-05-13T04:25:44.888Z,13.40
2023-05-13T04:28:21.176Z,13.40
2023-05-13T04:30:57.629Z,13.30
2023-05-13T04:33:31.817Z,13.30
2023-05-13T04:36:05.998Z,13.30
2023-05-13T04:38:39.432Z,13.30
2023-05-13T04:41:13.059Z,13.30
2023-05-13T04:43:48.470Z,13.50
2023-05-13T04:46:22.186Z,13.50
2023-05-13T04:48:56.041Z,13.40
2023-05-13T04:51:30.206Z,13.40
2023-05-13T04:54:04.214Z,13.40
2023-05-13T04:56:39.351Z,13.40
2023-05-13T04:59:14.462Z,13.50
2023-05-13T05:01:48.264Z,13.50
2023-05-13T05:04:22.607Z,13.50
2023-05-13T05:06:56.216Z,13.50
2023-05-13T05:10:02.958Z,13.60
2023-05-13T05:12:38.166Z,13.60
2023-05-13T05:15:20.050Z,13.70
2023-05-13T05:17:53.944Z,13.70
2023-05-13T05:20:27.861Z,13.70
2023-05-13T05:23:01.777Z,13.80
2023-05-13T05:25:35.521Z,13.90
2023-05-13T05:28:10.377Z,13.90
2023-05-13T05:30:46.062Z,14.00
2023-05-13T05:33:20.539Z,14.10
2023-05-13T05:35:55.020Z,14.10
2023-05-13T05:38:29.341Z,14.20
2023-05-13T05:41:03.211Z,14.30
2023-05-13T05:43:39.288Z,14.40
2023-05-13T05:46:15.032Z,14.50
2023-05-13T05:48:48.969Z,14.50
2023-05-13T05:51:24.680Z,14.60
2023-05-13T05:53:58.502Z,14.70
2023-05-13T05:56:32.226Z,14.80
2023-05-13T05:59:05.770Z,14.80
2023-05-13T06:01:42.222Z,14.90
2023-05-13T06:04:17.422Z,15.00
2023-05-13T06:06:51.473Z,15.10
2023-05-13T06:09:25.640Z,15.20
2023-05-13T06:11:59.527Z,15.30
2023-05-13T06:14:33.749Z,15.30
2023-05-13T06:17:09.129Z,15.40
2023-05-13T06:19:43.378Z,15.50
2023-05-13T06:22:17.081Z,15.60
2023-05-13T06:24:51.044Z,15.60
2023-05-13T06:27:24.940Z,15.70
2023-05-13T06:29:58.732Z,15.80
2023-05-13T06:32:34.332Z,15.90
2023-05-13T06:35:08.840Z,16.00
2023-05-13T06:37:42.391Z,16.00
2023-05-13T06:40:16.427Z,16.10
2023-05-13T06:42:50.356Z,16.20
2023-05-13T06:45:26.291Z,16.20
2023-05-13T06:48:01.508Z,16.30
2023-05-13T06:50:35.772Z,16.40
2023-05-13T06:53:12.269Z,16.40
2023-05-13T06:55:46.163Z,16.50
2023-05-13T06:58:21.138Z,16.50
2023-05-13T07:00:56.159Z,16.60
2023-05-13T07:03:31.590Z,16.60
2023-05-13T07:06:05.823Z,16.70
2023-05-13T07:08:42.255Z,16.80
2023-05-13T07:11:16.129Z,16.90
2023-05-13T07:13:55.167Z,16.90
2023-05-13T07:16:30.063Z,17.00
2023-05-13T07:19:05.053Z,17.00
2023-05-13T07:21:38.797Z,17.10
2023-05-13T07:24:12.885Z,17.20
2023-05-13T07:26:46.710Z,17.30
2023-05-13T07:29:21.113Z,17.40
2023-05-13T07:31:57.209Z,17.50
2023-05-13T07:34:33.626Z,17.70
2023-05-13T07:37:07.520Z,17.80
2023-05-13T07:39:40.929Z,17.90
2023-05-13T07:42:15.388Z,18.10
2023-05-13T07:44:49.499Z,18.20
2023-05-13T07:47:25.252Z,18.30
2023-05-13T07:50:00.432Z,18.40
2023-05-13T07:52:35.560Z,18.50
2023-05-13T07:55:10.931Z,18.60
2023-05-13T07:57:44.613Z,18.60
2023-05-13T08:00:19.217Z,18.70
2023-05-13T08:02:53.237Z,18.80
2023-05-13T08:05:28.609Z,18.90
2023-05-13T08:08:03.979Z,18.90
2023-05-13T08:10:37.763Z,19.00
2023-05-13T08:13:11.398Z,19.10
2023-05-13T08:15:45.201Z,19.30
2023-05-13T08:18:20.131Z,19.40
2023-05-13T08:20:55.477Z,19.50
2023-05-13T08:23:40.919Z,19.70
2023-05-13T08:26:18.579Z,19.80
2023-05-13T08:28:54.955Z,19.90
2023-05-13T08:31:29.125Z,20.10
2023-05-13T08:34:03.189Z,20.20
2023-05-13T08:36:38.738Z,20.40
2023-05-13T08:39:12.603Z,20.50
2023-05-13T08:41:47.924Z,20.60
2023-05-13T08:44:28.760Z,20.80
2023-05-13T08:47:15.303Z,20.90
2023-05-13T08:49:52.522Z,21.00
2023-05-13T08:52:28.523Z,21.20
2023-05-13T08:55:03.243Z,21.30
2023-05-13T08:57:37.289Z,21.40
2023-05-13T09:00:14.930Z,21.50
2023-05-13T09:02:51.807Z,21.60
2023-05-13T09:05:26.261Z,21.70
2023-05-13T09:08:09.528Z,21.80
2023-05-13T09:10:44.489Z,21.90
2023-05-13T09:13:20.069Z,22.10
2023-05-13T09:15:54.670Z,22.10
2023-05-13T09:18:33.058Z,22.30
2023-05-13T09:21:29.073Z,22.40
2023-05-13T09:24:12.102Z,22.50
2023-05-13T09:26:47.291Z,22.60
2023-05-13T09:29:26.546Z,22.70
2023-05-13T09:32:03.788Z,22.90
2023-05-13T09:34:37.557Z,23.00
2023-05-13T09:37:11.351Z,23.10
2023-05-13T09:39:51.417Z,23.20
2023-05-13T09:42:26.804Z,23.10
2023-05-13T09:45:08.648Z,23.40
2023-05-13T09:47:43.748Z,23.50
2023-05-13T09:50:17.376Z,23.60
2023-05-13T09:52:51.199Z,23.70
2023-05-13T09:55:26.661Z,23.80
2023-05-13T09:58:00.672Z,23.90
2023-05-13T10:00:38.990Z,24.00
2023-05-13T10:03:14.393Z,24.10
2023-05-13T10:05:50.309Z,24.20
2023-05-13T10:08:26.143Z,24.30
2023-05-13T10:11:02.070Z,24.10
2023-05-13T10:13:38.513Z,24.50
2023-05-13T10:16:13.484Z,24.50
2023-05-13T10:18:49.754Z,24.60
2023-05-13T10:21:24.227Z,24.70
2023-05-13T10:24:02.561Z,24.90
2023-05-13T10:26:39.449Z,25.00
2023-05-13T10:29:13.862Z,25.00
2023-05-13T10:31:49.605Z,25.10
2023-05-13T10:34:24.768Z,25.20
2023-05-13T10:37:28.557Z,25.30
2023-05-13T10:40:25.033Z,25.40
2023-05-13T10:43:14.376Z,25.50
2023-05-13T10:45:50.708Z,25.60
2023-05-13T10:48:25.356Z,25.60
2023-05-13T10:51:08.510Z,25.70
2023-05-13T10:53:49.899Z,25.80
2023-05-13T10:56:26.833Z,25.90
2023-05-13T10:59:04.930Z,26.00
2023-05-13T11:01:44.224Z,26.10
2023-05-13T11:04:21.559Z,26.20
2023-05-13T11:06:55.562Z,26.30
2023-05-13T11:09:32.658Z,26.30
2023-05-13T11:12:06.832Z,26.40
2023-05-13T11:14:45.294Z,26.50
2023-05-13T11:17:21.470Z,26.50
2023-05-13T11:19:56.740Z,26.60
2023-05-13T11:22:33.054Z,26.70
2023-05-13T11:25:11.968Z,26.80
2023-05-13T11:27:47.475Z,26.80
2023-05-13T11:30:28.297Z,26.90
2023-05-13T11:33:08.569Z,26.90
2023-05-13T11:35:43.997Z,27.00
2023-05-13T11:38:26.385Z,27.00
2023-05-13T11:41:01.298Z,27.10
2023-05-13T11:43:36.928Z,27.10
2023-05-13T11:46:13.355Z,27.20
2023-05-13T11:48:48.480Z,27.20
2023-05-13T11:51:22.701Z,27.30
2023-05-13T11:54:02.767Z,27.30
2023-05-13T11:56:37.462Z,27.40
2023-05-13T11:59:17.553Z,27.40
2023-05-13T12:02:03.175Z,27.40
2023-05-13T12:04:37.260Z,27.50
2023-05-13T12:07:15.627Z,27.50
2023-05-13T12:09:49.978Z,27.50
2023-05-13T12:12:24.991Z,27.60
2023-05-13T12:15:01.653Z,27.60
2023-05-13T12:17:38.705Z,27.60
2023-05-13T12:20:14.750Z,27.60
2023-05-13T12:22:54.178Z,27.60
2023-05-13T12:25:46.950Z,27.60
2023-05-13T12:28:22.199Z,27.60
2023-05-13T12:30:59.472Z,27.60
2023-05-13T12:33:43.243Z,27.50
2023-05-13T12:36:20.603Z,27.50
2023-05-13T12:39:11.211Z,27.40
2023-05-13T12:41:53.949Z,27.40
2023-05-13T12:44:30.620Z,27.30
2023-05-13T12:47:05.728Z,27.20
2023-05-13T12:50:00.116Z,27.20
2023-05-13T12:52:34.359Z,27.10
2023-05-13T12:55:10.281Z,27.20
2023-05-13T12:57:45.713Z,27.20
2023-05-13T13:00:22.187Z,27.30
2023-05-13T13:02:58.173Z,27.40
2023-05-13T13:05:34.383Z,27.40
2023-05-13T13:08:11.841Z,27.50
2023-05-13T13:10:47.154Z,27.50
2023-05-13T13:13:21.049Z,27.40
2023-05-13T13:15:55.092Z,27.30
2023-05-13T13:18:29.272Z,27.20
2023-05-13T13:21:07.533Z,27.20
2023-05-13T13:23:41.847Z,27.10
2023-05-13T13:26:17.098Z,27.00
2023-05-13T13:28:51.766Z,27.00
2023-05-13T13:31:25.354Z,26.90
2023-05-13T13:34:04.298Z,26.80
2023-05-13T13:36:40.625Z,26.80
2023-05-13T13:39:14.572Z,26.80
2023-05-13T13:41:47.972Z,26.80
2023-05-13T13:44:21.637Z,26.80
2023-05-13T13:46:55.738Z,26.80
2023-05-13T13:49:30.432Z,26.70
2023-05-13T13:52:07.598Z,26.70
2023-05-13T13:54:41.619Z,26.60
2023-05-13T13:57:16.610Z,26.60
2023-05-13T13:59:52.514Z,26.60
2023-05-13T14:02:26.536Z,26.50
2023-05-13T14:05:00.359Z,26.40
2023-05-13T14:07:36.174Z,26.40
2023-05-13T14:10:11.557Z,26.30
2023-05-13T14:12:45.551Z,26.30
2023-05-13T14:15:20.012Z,26.40
2023-05-13T14:17:55.114Z,26.40
2023-05-13T14:20:30.103Z,26.50
2023-05-13T14:23:05.788Z,26.50
2023-05-13T14:25:42.676Z,26.60
2023-05-13T14:28:18.398Z,26.60
2023-05-13T14:30:52.806Z,26.70
2023-05-13T14:33:26.882Z,26.70
2023-05-13T14:36:08.232Z,26.70
2023-05-13T14:38:43.980Z,26.70
2023-05-13T14:41:20.224Z,26.50
2023-05-13T14:43:53.923Z,26.50
2023-05-13T14:46:28.061Z,26.30
2023-05-13T14:49:03.029Z,26.20
2023-05-13T14:51:36.900Z,26.10
2023-05-13T14:54:14.345Z,26.00
2023-05-13T14:56:48.136Z,25.90
2023-05-13T14:59:22.060Z,25.80
2023-05-13T15:01:56.091Z,25.70
2023-05-13T15:04:29.724Z,25.60
2023-05-13T15:07:04.913Z,25.40
2023-05-13T15:09:40.352Z,25.30
2023-05-13T15:12:13.935Z,25.10
2023-05-13T15:14:54.677Z,25.00
2023-05-13T15:17:31.121Z,24.80
2023-05-13T15:20:05.527Z,24.70
2023-05-13T15:22:39.275Z,24.50
2023-05-13T15:25:14.496Z,24.40
2023-05-13T15:27:48.539Z,24.30
2023-05-13T15:30:25.469Z,24.20
2023-05-13T15:32:59.141Z,24.20
2023-05-13T15:35:33.297Z,24.10
2023-05-13T15:38:08.290Z,24.10
2023-05-13T15:40:43.206Z,24.00
2023-05-13T15:43:16.788Z,24.10
2023-05-13T15:45:51.133Z,24.10
2023-05-13T15:48:29.491Z,24.30
2023-05-13T15:51:04.961Z,24.20
2023-05-13T15:53:38.939Z,24.30
2023-05-13T15:56:14.376Z,24.30
2023-05-13T15:58:49.791Z,24.40
2023-05-13T16:01:25.002Z,24.40
2023-05-13T16:03:59.998Z,24.50
2023-05-13T16:06:33.896Z,24.50
2023-05-13T16:09:07.380Z,24.60
2023-05-13T16:11:43.760Z,24.60
2023-05-13T16:14:22.261Z,24.70
2023-05-13T16:16:56.580Z,24.70
2023-05-13T16:19:30.867Z,24.70
2023-05-13T16:22:28.332Z,24.70
2023-05-13T16:25:04.659Z,24.70
2023-05-13T16:27:43.247Z,24.70
2023-05-13T16:30:17.956Z,24.70
2023-05-13T16:32:53.544Z,24.70
2023-05-13T16:35:27.230Z,24.60
2023-05-13T16:38:02.035Z,24.60
2023-05-13T16:40:35.946Z,24.60
2023-05-13T16:43:11.200Z,24.50
2023-05-13T16:45:46.308Z,24.50
2023-05-13T16:48:21.309Z,24.50
2023-05-13T16:50:56.343Z,24.50
2023-05-13T16:53:29.837Z,24.50
2023-05-13T16:56:03.551Z,24.50
2023-05-13T16:58:39.449Z,24.50
2023-05-13T17:01:14.543Z,24.50
2023-05-13T17:03:48.216Z,24.40
2023-05-13T17:06:21.939Z,24.40
2023-05-13T17:08:56.977Z,24.30
2023-05-13T17:11:30.855Z,24.30
2023-05-13T17:14:07.088Z,24.20
2023-05-13T17:16:45.353Z,24.20
2023-05-13T17:19:21.458Z,24.10
2023-05-13T17:21:55.353Z,24.00
2023-05-13T17:24:29.492Z,24.00
2023-05-13T17:27:04.174Z,24.10
2023-05-13T17:29:39.303Z,23.90
2023-05-13T17:32:12.891Z,23.90
2023-05-13T17:34:46.589Z,23.80
2023-05-13T17:37:20.704Z,23.80
2023-05-13T17:39:54.981Z,23.80
2023-05-13T17:42:29.068Z,23.80
2023-05-13T17:45:05.313Z,23.80
2023-05-13T17:47:38.925Z,23.70
2023-05-13T17:50:14.851Z,23.70
2023-05-13T17:52:49.479Z,23.60
2023-05-13T17:55:24.252Z,23.60
2023-05-13T17:58:00.208Z,23.50
2023-05-13T18:00:36.811Z,23.50
2023-05-13T18:03:11.281Z,23.50
2023-05-13T18:05:45.711Z,23.40
2023-05-13T18:08:19.193Z,23.40
2023-05-13T18:10:53.232Z,23.40
2023-05-13T18:13:28.264Z,23.40
2023-05-13T18:16:04.792Z,23.40
2023-05-13T18:18:39.998Z,23.30
2023-05-13T18:21:13.522Z,23.30
2023-05-13T18:23:47.293Z,23.30
2023-05-13T18:26:25.031Z,23.30
2023-05-13T18:28:58.744Z,23.20
2023-05-13T18:31:37.911Z,23.20
2023-05-13T18:34:11.895Z,23.10
2023-05-13T18:36:46.989Z,23.00
2023-05-13T18:39:23.800Z,23.00
2023-05-13T18:41:59.199Z,23.00
2023-05-13T18:44:33.199Z,22.90
2023-05-13T18:47:08.868Z,22.90
2023-05-13T18:49:44.486Z,22.80
2023-05-13T18:52:18.155Z,22.80
2023-05-13T18:54:52.390Z,22.70
2023-05-13T18:57:26.591Z,22.70
2023-05-13T19:00:00.474Z,22.60
2023-05-13T19:02:35.976Z,22.50
2023-05-13T19:05:11.925Z,22.50
2023-05-13T19:07:45.924Z,22.40
2023-05-13T19:10:20.423Z,22.30
2023-05-13T19:12:53.948Z,22.30
2023-05-13T19:15:29.556Z,22.20
2023-05-13T19:18:04.893Z,22.10
2023-05-13T19:20:43.748Z,22.00
2023-05-13T19:23:17.716Z,22.00
2023-05-13T19:25:51.657Z,21.90
2023-05-13T19:28:28.414Z,21.80
2023-05-13T19:31:04.300Z,21.80
2023-05-13T19:33:39.311Z,21.70
2023-05-13T19:36:13.340Z,21.70
2023-05-13T19:38:50.025Z,21.60
2023-05-13T19:41:23.730Z,21.50
2023-05-13T19:43:58.334Z,21.20
2023-05-13T19:46:33.097Z,21.40
2023-05-13T19:49:10.053Z,21.30
2023-05-13T19:51:43.557Z,21.20
2023-05-13T19:54:17.448Z,21.20
2023-05-13T19:56:55.925Z,21.10
2023-05-13T19:59:32.701Z,21.00
2023-05-13T20:02:06.958Z,20.90
2023-05-13T20:04:42.430Z,20.90
2023-05-13T20:07:17.360Z,20.80
2023-05-13T20:09:52.492Z,20.70
2023-05-13T20:12:27.306Z,20.60
2023-05-13T20:15:02.245Z,20.60
2023-05-13T20:17:36.111Z,20.50
2023-05-13T20:20:13.782Z,20.40
2023-05-13T20:22:47.620Z,20.40
2023-05-13T20:25:21.550Z,20.30
2023-05-13T20:27:55.437Z,20.20
2023-05-13T20:30:29.258Z,20.20
2023-05-13T20:33:03.006Z,20.10
2023-05-13T20:35:39.177Z,20.00
2023-05-13T20:38:12.569Z,20.00
2023-05-13T20:40:46.663Z,19.90
2023-05-13T20:43:20.597Z,19.90
2023-05-13T20:45:54.505Z,19.80
2023-05-13T20:48:32.124Z,19.70
2023-05-13T20:51:07.880Z,19.70
2023-05-13T20:53:41.852Z,19.60
2023-05-13T20:56:15.541Z,19.60
2023-05-13T20:58:49.117Z,19.50
2023-05-13T21:01:26.950Z,19.40
2023-05-13T21:04:07.470Z,19.40
2023-05-13T21:06:45.599Z,19.30
2023-05-13T21:09:22.304Z,19.30
2023-05-13T21:11:56.248Z,19.20
2023-05-13T21:14:29.935Z,19.20
2023-05-13T21:17:04.274Z,19.10
2023-05-13T21:19:38.630Z,19.10
2023-05-13T21:22:13.849Z,19.00
2023-05-13T21:24:48.556Z,19.00
2023-05-13T21:27:22.890Z,18.80
2023-05-13T21:29:58.059Z,18.90
2023-05-13T21:32:33.190Z,18.80
2023-05-13T21:35:08.268Z,18.80
2023-05-13T21:37:46.538Z,18.70
2023-05-13T21:40:21.958Z,18.70
2023-05-13T21:42:57.435Z,18.60
2023-05-13T21:45:30.948Z,18.60
2023-05-13T21:48:06.752Z,18.50
2023-05-13T21:50:42.657Z,18.50
2023-05-13T21:53:18.031Z,18.50
2023-05-13T21:55:53.780Z,18.40
2023-05-13T21:58:27.912Z,18.40
2023-05-13T22:01:02.990Z,18.30
2023-05-13T22:03:36.495Z,18.20
2023-05-13T22:06:36.451Z,18.20
2023-05-13T22:09:12.208Z,18.20
2023-05-13T22:11:45.592Z,18.20
2023-05-13T22:14:19.705Z,18.10
2023-05-13T22:17:08.577Z,18.10
2023-05-13T22:19:44.434Z,18.00
2023-05-13T22:22:20.384Z,18.00
2023-05-13T22:24:56.121Z,17.90
2023-05-13T22:27:29.675Z,17.90
2023-05-13T22:30:05.545Z,17.80
2023-05-13T22:32:39.192Z,17.80
2023-05-13T22:35:13.223Z,17.70
2023-05-13T22:37:47.514Z,17.70
2023-05-13T22:40:23.443Z,17.60
2023-05-13T22:42:58.816Z,17.60
2023-05-13T22:45:32.536Z,17.60
2023-05-13T22:48:08.751Z,17.50
2023-05-13T22:50:42.452Z,17.50
2023-05-13T22:53:16.900Z,17.40
2023-05-13T22:55:52.075Z,17.40
2023-05-13T22:58:26.078Z,17.30
2023-05-13T23:01:00.681Z,17.30
2023-05-13T23:03:34.109Z,17.20
2023-05-13T23:06:08.037Z,17.10
2023-05-13T23:08:41.633Z,17.10
2023-05-13T23:11:16.617Z,17.10
2023-05-13T23:13:53.052Z,17.00
2023-05-13T23:16:27.167Z,17.00
2023-05-13T23:19:01.001Z,16.90
2023-05-13T23:21:36.625Z,16.90
2023-05-13T23:24:10.710Z,16.80
2023-05-13T23:26:47.555Z,16.80
2023-05-13T23:29:22.995Z,16.70
2023-05-13T23:31:58.715Z,16.70
2023-05-13T23:34:33.498Z,16.70
2023-05-13T23:37:07.478Z,16.60
2023-05-13T23:39:41.315Z,16.60
2023-05-13T23:42:17.632Z,16.60
2023-05-13T23:44:51.246Z,16.50
2023-05-13T23:47:25.103Z,16.50
2023-05-13T23:49:58.973Z,16.50
2023-05-13T23:52:32.867Z,16.40
2023-05-13T23:55:10.832Z,16.40
2023-05-13T23:57:46.360Z,16.30
